Benton, Illinois
Current Conditions -  °F | °C
As of 4:10 AM on Monday 22 Dec 2014 (Local Time) from KMWA Reporting Station
Overcast Overcast  
Wind Chill: 37°   Ceiling: 2100
Heat Index: 41°   Visibility: 10mi
Dew Point: 34°   Wind: 6mph
Humidity: 76%   Direction: 110°ESE
Pressure: 29.89"   Gusts: NA
Location:  38°N, 88.92°W
Report Text: KMWA 221010Z AUTO 11005KT 10SM BKN021 OVC026 05/01 A2989 RMK AO2
Loading
Personal Weather Stations






























Interactive Weather Map New forecast layout! Learn more

10-Day Weather Forecast

Advertisements
Track Severe Weather on mobile